Little's Farm

CA-0442 · Ontario, Canada

October 5, 2022

Time Code Weather Temp. Visibility Ceiling Wind METAR/SPECI
20:00
V
18 °C 15 mi - 130° 130° 2 kt METAR CYYZ 060000Z 13002KT 15SM SCT250 18/08 A3000 RMK CI3 SLP163 DENSITY ALT 1000FT
19:00
V
18 °C 15 mi - 140° 140° 3 kt METAR CYYZ 052300Z 14003KT 15SM FEW150 SCT250 18/08 A3000 RMK AC1CI3 AC TR SLP162 DENSITY ALT 1000FT
18:00
V
20 °C 15 mi - 150° 150° 7 kt METAR CYYZ 052200Z 15007KT 15SM FEW250 20/06 A2999 RMK CI1 CONTRAILS SLP160 DENSITY ALT 1200FT
17:00
V
21 °C 15 mi - 140° 140° 8 kt METAR CYYZ 052100Z 14008KT 15SM FEW250 21/03 A3000 RMK CI1 CI TR SLP160 DENSITY ALT 1400FT
16:00
V
21 °C 15 mi - 140° 140° 7 kt METAR CYYZ 052000Z 14007KT 15SM FEW250 21/07 A3000 RMK CI1 CI TR SLP163 DENSITY ALT 1400FT
15:00
V
22 °C 15 mi - 130° 130° 7 kt METAR CYYZ 051900Z 13007KT 15SM FEW250 22/09 A3002 RMK CI1 CI TR SLP167 DENSITY ALT 1400FT
14:00
V
20 °C 15 mi - 140° 140° 7 kt METAR CYYZ 051800Z 14007KT 15SM FEW250 20/09 A3003 RMK CI1 CI TR SLP174 DENSITY ALT 1200FT
13:00
V
21 °C 15 mi - 310° 310° 4 kt METAR CYYZ 051700Z 31004KT 260V020 15SM FEW250 21/05 A3005 RMK CI1 CI TR SLP179 DENSITY ALT 1300FT
12:00
V
20 °C 15 mi - Var Var 3 kt METAR CYYZ 051600Z VRB03KT 15SM FEW250 20/03 A3007 RMK CI1 CI TR SLP185 DENSITY ALT 1100FT
11:00
V
18 °C 15 mi - 360° 360° 3 kt METAR CYYZ 051500Z 36003KT 300V060 15SM FEW250 18/07 A3008 RMK CI1 CI TR SLP189 DENSITY ALT 900FT
10:00
V
15 °C 15 mi - 360° 360° 5 kt METAR CYYZ 051400Z 36005KT 330V030 15SM FEW250 15/06 A3009 RMK CI1 CI TR SLP192 DENSITY ALT 600FT
09:00
V
13 °C 15 mi - 320° 320° 4 kt METAR CYYZ 051300Z 32004KT 15SM SKC 13/05 A3009 RMK SLP192
08:00
V
9 °C 15 mi - 310° 310° 3 kt METAR CYYZ 051200Z 31003KT 15SM SKC 09/06 A3008 RMK SLP191
07:00
V
9 °C 15 mi - Var 000° 0 kt METAR CYYZ 051100Z 00000KT 15SM SKC 09/06 A3008 RMK SLP189
06:00
V
9 °C 15 mi - 320° 320° 4 kt METAR CYYZ 051000Z 32004KT 15SM FEW180 09/05 A3006 RMK AS1 SLP184
05:00
V
10 °C 15 mi - 310° 310° 4 kt METAR CYYZ 050900Z 31004KT 15SM SKC 10/04 A3006 RMK SLP184
04:00
V
10 °C 15 mi - Var Var 2 kt METAR CYYZ 050800Z VRB02KT 15SM SKC 10/04 A3007 RMK SLP187
03:00
V
10 °C 15 mi - 310° 310° 3 kt METAR CYYZ 050700Z 31003KT 15SM FEW180 10/04 A3008 RMK AS2 SLP191
02:00
V
11 °C 15 mi - 330° 330° 6 kt METAR CYYZ 050600Z 33006KT 290V350 15SM FEW180 11/04 A3009 RMK AS2 SLP194
01:00
V
11 °C 15 mi - 330° 330° 5 kt METAR CYYZ 050500Z 33005KT 15SM FEW180 11/04 A3011 RMK AS1 SLP200
00:00
V
11 °C 15 mi - 320° 320° 8 kt METAR CYYZ 050400Z 32008KT 260V350 15SM SKC 11/04 A3012 RMK SLP203

October 4, 2022

Time Code Weather Temp. Visibility Ceiling Wind METAR/SPECI
23:00
V
11 °C 15 mi - 310° 310° 2 kt METAR CYYZ 050300Z 31002KT 15SM SKC 11/03 A3013 RMK SLP207
22:00
V
12 °C 15 mi - 280° 280° 4 kt METAR CYYZ 050200Z 28004KT 15SM SKC 12/03 A3013 RMK SLP208
21:00
V
13 °C 15 mi - Var 000° 0 kt METAR CYYZ 050100Z 00000KT 15SM FEW180 13/02 A3013 RMK AS1 SLP208
20:00
V
14 °C 15 mi - 160° 160° 3 kt METAR CYYZ 050000Z 16003KT 15SM SCT250 14/02 A3012 RMK CI3 SLP206
19:00
V
15 °C 15 mi - 150° 150° 5 kt METAR CYYZ 042300Z 15005KT 15SM SCT250 15/02 A3011 RMK CI3 SLP202
18:00
V
17 °C 15 mi - 160° 160° 4 kt METAR CYYZ 042200Z 16004KT 15SM SCT260 17/04 A3011 RMK CI4 SLP201 DENSITY ALT 700FT
17:00
V
17 °C 15 mi 24,000 ft 130° 130° 4 kt METAR CYYZ 042100Z 13004KT 15SM BKN240 17/04 A3012 RMK CI5 SLP203 DENSITY ALT 800FT
16:00
V
17 °C 15 mi 24,000 ft Var Var 5 kt METAR CYYZ 042000Z VRB05KT 15SM BKN240 17/04 A3014 RMK CI6 SLP210 DENSITY ALT 700FT
15:00
V
17 °C 15 mi 24,000 ft 320° 320° 6 kt METAR CYYZ 041900Z 32006KT 300V360 15SM BKN240 17/M01 A3015 RMK CI6 SLP213 DENSITY ALT 700FT
14:00
V
18 °C 15 mi 24,000 ft 330° 330° 7 kt METAR CYYZ 041800Z 33007KT 280V040 15SM BKN240 18/02 A3017 RMK CI6 SLP220 DENSITY ALT 800FT
13:00
V
17 °C 15 mi 24,000 ft 010° 010° 5 kt METAR CYYZ 041700Z 01005KT 310V050 15SM BKN240 17/03 A3019 RMK CI6 SLP228 DENSITY ALT 600FT
12:00
V
15 °C 15 mi 24,000 ft 350° 350° 4 kt METAR CYYZ 041600Z 35004KT 320V090 15SM BKN240 15/05 A3021 RMK CI6 SLP233
11:00
V
13 °C 15 mi 26,000 ft 010° 010° 7 kt METAR CYYZ 041500Z 01007KT 15SM FEW180 BKN260 13/06 A3022 RMK AC1CI5 SLP240
10:00
V
12 °C 15 mi 24,000 ft 340° 340° 7 kt METAR CYYZ 041400Z 34007KT 15SM BKN240 12/06 A3023 RMK CI6 SLP242
09:00
V
10 °C 15 mi 24,000 ft 320° 320° 6 kt METAR CYYZ 041300Z 32006KT 15SM BKN240 10/04 A3023 RMK CI6 SLP242
08:00
V
7 °C 15 mi 26,000 ft 360° 360° 4 kt METAR CYYZ 041200Z 36004KT 15SM BKN260 07/03 A3023 RMK CI6 SLP242
07:00
V
7 °C 15 mi 24,000 ft 340° 340° 3 kt METAR CYYZ 041100Z 34003KT 320V020 15SM BKN240 07/03 A3023 RMK CI7 SLP242
06:00
V
7 °C 15 mi 25,000 ft 350° 350° 4 kt METAR CYYZ 041000Z 35004KT 15SM BKN250 07/03 A3023 RMK CI6 SLP243
05:00
V
7 °C 15 mi 25,000 ft 350° 350° 3 kt METAR CYYZ 040900Z 35003KT 15SM BKN250 07/03 A3023 RMK CS7 SLP243
04:00
V
7 °C 15 mi 25,000 ft 340° 340° 4 kt METAR CYYZ 040800Z 34004KT 15SM BKN250 07/03 A3024 RMK CS7 SLP244
03:00
V
7 °C 15 mi 25,000 ft 330° 330° 6 kt METAR CYYZ 040700Z 33006KT 15SM BKN250 07/03 A3024 RMK CI7 SLP247
02:00
V
8 °C 15 mi 25,000 ft 320° 320° 5 kt METAR CYYZ 040600Z 32005KT 15SM BKN250 08/03 A3025 RMK CI6 SLP249
01:00
V
8 °C 15 mi - 320° 320° 8 kt METAR CYYZ 040500Z 32008KT 15SM SCT250 08/03 A3027 RMK CI3 SLP254
00:00
V
9 °C 15 mi - 310° 310° 6 kt METAR CYYZ 040400Z 31006KT 15SM FEW160 SCT250 09/03 A3028 RMK AC1CI2 SLP258

October 3, 2022

Time Code Weather Temp. Visibility Ceiling Wind METAR/SPECI
23:00
V
9 °C 15 mi 25,000 ft 280° 280° 4 kt METAR CYYZ 040300Z 28004KT 15SM BKN250 09/03 A3029 RMK CI5 SLP261
22:00
V
10 °C 15 mi - 250° 250° 3 kt METAR CYYZ 040200Z 25003KT 15SM FEW180 SCT230 10/04 A3030 RMK AC2CI1 SLP264
21:00
V
11 °C 15 mi - 150° 150° 3 kt METAR CYYZ 040100Z 15003KT 15SM SCT180 11/04 A3030 RMK AC3 SLP265
20:00
V
11 °C 15 mi - 170° 170° 4 kt METAR CYYZ 040000Z 17004KT 15SM FEW160 SCT230 11/03 A3030 RMK AC2CI2 SLP266
19:00
V
12 °C 15 mi 23,000 ft 160° 160° 5 kt METAR CYYZ 032300Z 16005KT 15SM SCT160 BKN230 12/03 A3030 RMK AC3CI3 SLP266
18:00
V
13 °C 15 mi 24,000 ft 140° 140° 6 kt METAR CYYZ 032200Z 14006KT 15SM BKN240 13/03 A3031 RMK CI6 SLP269
17:00
V
13 °C 15 mi 24,000 ft 160° 160° 8 kt METAR CYYZ 032100Z 16008KT 15SM BKN240 13/02 A3032 RMK CI6 SLP272
16:00
V
15 °C 15 mi 24,000 ft Var Var 8 kt METAR CYYZ 032000Z VRB08KT 15SM BKN240 15/02 A3032 RMK CI5 SLP272
15:00
V
15 °C 15 mi - 210° 210° 4 kt METAR CYYZ 031900Z 21004KT 130V270 15SM FEW240 15/02 A3034 RMK CI2 SLP280
14:00
V
14 °C 15 mi - 120° 120° 5 kt METAR CYYZ 031800Z 12005KT 110V190 15SM FEW240 14/01 A3037 RMK CI2 SLP291
13:00
V
14 °C 15 mi - 150° 150° 5 kt METAR CYYZ 031700Z 15005KT 120V190 15SM FEW260 14/00 A3040 RMK CI1 SLP299
12:00
V
14 °C 15 mi - Var Var 8 kt METAR CYYZ 031600Z VRB08KT 15SM FEW240 14/M01 A3041 RMK CI2 SLP304
11:00
V
13 °C 15 mi - 040° 040° 4 kt METAR CYYZ 031500Z 04004KT 350V090 15SM FEW260 13/01 A3041 RMK CI1 SLP304
Older data

We and third parties follow your internet behavior on our website with cookies. If you continue, we assume you agree with our cookie policy. Learn more